createdAt,value
2018-07-25T00:00:58.271Z,54.43
2018-07-25T00:04:00.306Z,54.60
2018-07-25T00:07:02.437Z,54.29
2018-07-25T00:10:04.380Z,53.60
2018-07-25T00:13:06.433Z,53.97
2018-07-25T00:16:08.603Z,55.32
2018-07-25T00:19:11.613Z,54.67
2018-07-25T00:22:13.699Z,54.68
2018-07-25T00:25:15.640Z,55.98
2018-07-25T00:28:17.705Z,55.18
2018-07-25T00:31:19.775Z,54.93
2018-07-25T00:34:21.834Z,55.03
2018-07-25T00:37:23.902Z,56.07
2018-07-25T00:40:26.040Z,56.63
2018-07-25T00:43:28.034Z,57.11
2018-07-25T00:46:30.117Z,56.39
2018-07-25T00:49:32.184Z,56.92
2018-07-25T00:52:34.138Z,56.54
2018-07-25T00:55:37.236Z,56.44
2018-07-25T00:58:39.292Z,57.07
2018-07-25T01:01:41.268Z,56.48
2018-07-25T01:04:43.327Z,57.41
2018-07-25T01:07:45.456Z,57.38
2018-07-25T01:10:47.495Z,56.06
2018-07-25T01:13:49.564Z,56.70
2018-07-25T01:16:52.221Z,56.53
2018-07-25T01:19:54.295Z,56.80
2018-07-25T01:22:56.377Z,57.30
2018-07-25T01:25:58.459Z,57.77
2018-07-25T01:29:00.484Z,58.05
2018-07-25T01:32:02.482Z,57.88
2018-07-25T01:35:04.584Z,57.69
2018-07-25T01:38:06.588Z,57.38
2018-07-25T01:41:13.733Z,58.00
2018-07-25T01:44:15.880Z,58.52
2018-07-25T01:47:17.955Z,57.94
2018-07-25T01:50:20.064Z,58.23
2018-07-25T01:53:22.183Z,58.06
2018-07-25T01:56:24.287Z,58.91
2018-07-25T01:59:28.008Z,58.79
2018-07-25T02:02:29.971Z,58.53
2018-07-25T02:05:32.082Z,58.68
2018-07-25T02:08:34.230Z,59.03
2018-07-25T02:11:36.223Z,58.55
2018-07-25T02:14:38.356Z,59.05
2018-07-25T02:17:40.392Z,58.04
2018-07-25T02:20:43.318Z,59.01
2018-07-25T02:23:46.337Z,59.19
2018-07-25T02:26:48.455Z,58.63
2018-07-25T02:29:50.539Z,58.20
2018-07-25T02:32:52.559Z,58.58
2018-07-25T02:35:55.665Z,58.83
2018-07-25T02:38:57.703Z,59.19
2018-07-25T02:41:59.682Z,59.15
2018-07-25T02:45:01.774Z,59.37
2018-07-25T02:48:04.003Z,59.27
2018-07-25T02:51:06.119Z,58.27
2018-07-25T02:54:08.295Z,59.26
2018-07-25T02:57:10.341Z,59.86
2018-07-25T03:00:13.171Z,59.29
2018-07-25T03:03:15.287Z,60.15
2018-07-25T03:06:17.486Z,59.45
2018-07-25T03:09:19.619Z,59.66
2018-07-25T03:12:21.713Z,59.31
2018-07-25T03:15:23.796Z,59.79
2018-07-25T03:18:25.927Z,60.32
2018-07-25T03:21:28.035Z,60.15
2018-07-25T03:24:31.091Z,59.47
2018-07-25T03:27:33.090Z,59.53
2018-07-25T03:30:35.031Z,59.31
2018-07-25T03:33:37.203Z,60.66
2018-07-25T03:36:39.169Z,59.79
2018-07-25T03:39:41.280Z,59.91
2018-07-25T03:42:44.321Z,60.72
2018-07-25T03:45:46.551Z,60.86
2018-07-25T03:48:48.712Z,60.37
2018-07-25T03:51:50.663Z,60.55
2018-07-25T03:54:52.688Z,59.67
2018-07-25T03:57:54.948Z,60.71
2018-07-25T04:00:57.985Z,61.03
2018-07-25T04:04:00.084Z,59.76
2018-07-25T04:07:05.732Z,61.02
2018-07-25T04:10:07.795Z,61.79
2018-07-25T04:13:09.870Z,61.04
2018-07-25T04:16:12.025Z,60.68
2018-07-25T04:19:14.886Z,61.35
2018-07-25T04:22:16.987Z,61.87
2018-07-25T04:25:19.154Z,63.11
2018-07-25T04:28:21.236Z,64.00
2018-07-25T04:31:23.204Z,64.58
2018-07-25T04:34:25.326Z,64.98
2018-07-25T04:37:27.639Z,65.21
2018-07-25T04:40:29.683Z,65.10
2018-07-25T04:43:31.781Z,64.96
2018-07-25T04:46:34.054Z,63.64
2018-07-25T04:49:36.035Z,61.50
2018-07-25T04:52:38.174Z,61.83
2018-07-25T04:55:40.280Z,61.62
2018-07-25T04:58:43.352Z,61.22
2018-07-25T05:01:45.478Z,60.38
2018-07-25T05:04:47.589Z,59.54
2018-07-25T05:07:49.655Z,59.13
2018-07-25T05:10:51.675Z,58.84
2018-07-25T05:13:53.802Z,58.55
2018-07-25T05:16:55.880Z,58.73
2018-07-25T05:19:58.134Z,58.44
2018-07-25T05:23:01.254Z,58.33
2018-07-25T05:26:03.159Z,57.94
2018-07-25T05:29:05.269Z,57.82
2018-07-25T05:32:07.465Z,57.83
2018-07-25T05:35:10.756Z,58.10
2018-07-25T05:38:13.810Z,57.67
2018-07-25T05:41:15.979Z,57.41
2018-07-25T05:44:17.982Z,57.05
2018-07-25T05:47:20.236Z,56.92
2018-07-25T05:50:22.343Z,56.61
2018-07-25T05:53:24.395Z,56.48
2018-07-25T05:56:26.632Z,56.43
2018-07-25T05:59:28.744Z,56.51
2018-07-25T06:02:30.857Z,55.98
2018-07-25T06:05:32.939Z,55.55
2018-07-25T06:08:34.912Z,54.75
2018-07-25T06:11:37.272Z,54.15
2018-07-25T06:14:39.314Z,54.79
2018-07-25T06:17:45.241Z,54.17
2018-07-25T06:20:47.356Z,54.52
2018-07-25T06:23:49.617Z,53.62
2018-07-25T06:26:57.638Z,53.99
2018-07-25T06:29:59.755Z,53.52
2018-07-25T06:33:01.817Z,53.44
2018-07-25T06:36:04.293Z,52.55
2018-07-25T06:39:08.903Z,52.30
2018-07-25T06:42:10.992Z,52.78
2018-07-25T06:45:14.204Z,52.50
2018-07-25T06:48:16.499Z,52.40
2018-07-25T06:51:18.521Z,52.19
2018-07-25T06:54:20.773Z,50.77
2018-07-25T06:57:23.001Z,50.93
2018-07-25T07:00:24.961Z,51.19
2018-07-25T07:03:27.120Z,50.92
2018-07-25T07:06:29.231Z,51.12
2018-07-25T07:09:31.229Z,50.88
2018-07-25T07:12:35.359Z,51.42
2018-07-25T07:15:37.467Z,50.04
2018-07-25T07:18:39.611Z,49.72
2018-07-25T07:21:41.663Z,48.38
2018-07-25T07:24:45.922Z,49.32
2018-07-25T07:27:48.091Z,48.89
2018-07-25T07:30:51.178Z,49.44
2018-07-25T07:33:53.257Z,49.32
2018-07-25T07:36:55.354Z,48.85
2018-07-25T07:39:57.401Z,49.06
2018-07-25T07:42:59.459Z,48.28
2018-07-25T07:46:01.745Z,48.91
2018-07-25T07:49:04.115Z,48.03
2018-07-25T07:52:06.265Z,48.31
2018-07-25T07:55:08.456Z,48.87
2018-07-25T07:58:10.635Z,48.49
2018-07-25T08:01:12.784Z,48.11
2018-07-25T08:04:14.996Z,47.52
2018-07-25T08:07:17.087Z,47.27
2018-07-25T08:10:19.120Z,48.16
2018-07-25T08:13:21.361Z,48.43
2018-07-25T08:16:23.447Z,46.28
2018-07-25T08:19:25.532Z,46.65
2018-07-25T08:22:27.700Z,46.62
2018-07-25T08:25:30.759Z,45.68
2018-07-25T08:28:33.861Z,45.09
2018-07-25T08:31:35.919Z,45.02
2018-07-25T08:34:37.908Z,45.45
2018-07-25T08:37:40.028Z,44.76
2018-07-25T08:40:42.134Z,45.69
2018-07-25T09:41:57.916Z,40.28
2018-07-25T09:45:01.075Z,40.23
2018-07-25T09:48:04.203Z,40.66
2018-07-25T09:51:07.366Z,39.14
2018-07-25T09:54:11.792Z,37.66
2018-07-25T09:57:14.924Z,37.73
2018-07-25T10:00:23.375Z,37.03
2018-07-25T10:03:26.670Z,37.75
2018-07-25T10:06:29.788Z,37.56
2018-07-25T10:09:32.918Z,37.88
2018-07-25T10:12:36.098Z,37.07
2018-07-25T10:15:39.765Z,36.18
2018-07-25T10:18:42.879Z,37.24
2018-07-25T10:21:45.996Z,37.02
2018-07-25T10:24:49.466Z,36.15
2018-07-25T10:27:52.598Z,36.67
2018-07-25T10:30:55.703Z,35.20
2018-07-25T10:33:58.970Z,34.81
2018-07-25T10:37:02.088Z,34.87
2018-07-25T10:40:05.271Z,34.89
2018-07-25T10:43:08.420Z,35.14
2018-07-25T10:46:13.016Z,33.63
2018-07-25T10:49:16.315Z,33.52
2018-07-25T10:52:19.760Z,31.57
2018-07-25T10:55:23.078Z,32.88
2018-07-25T10:58:26.435Z,31.79
2018-07-25T11:01:29.623Z,32.29
2018-07-25T11:04:32.799Z,32.96
2018-07-25T11:07:36.170Z,32.78
2018-07-25T11:10:40.083Z,32.22
2018-07-25T11:13:43.320Z,31.59
2018-07-25T11:16:46.539Z,30.64
2018-07-25T11:19:49.710Z,31.65
2018-07-25T11:22:53.055Z,30.13
2018-07-25T11:25:56.809Z,29.73
2018-07-25T11:29:00.005Z,28.55
2018-07-25T11:32:03.248Z,27.62
2018-07-25T11:35:06.530Z,28.35
2018-07-25T11:38:10.423Z,28.03
2018-07-25T11:41:13.564Z,27.09
2018-07-25T11:44:16.816Z,27.52
2018-07-25T11:47:20.029Z,27.14
2018-07-25T11:50:23.367Z,26.82
2018-07-25T11:53:26.852Z,27.62
2018-07-25T11:56:30.243Z,30.17
2018-07-25T11:59:33.448Z,32.13
2018-07-25T12:02:36.715Z,34.41
2018-07-25T12:05:40.396Z,34.34
2018-07-25T12:08:43.591Z,33.59
2018-07-25T12:11:47.878Z,33.18
2018-07-25T12:14:51.149Z,33.80
2018-07-25T12:17:54.455Z,32.58
2018-07-25T12:21:11.436Z,31.34
2018-07-25T12:24:14.732Z,32.28
2018-07-25T12:27:18.017Z,32.27
2018-07-25T12:30:21.312Z,32.03
2018-07-25T12:33:24.552Z,30.70
2018-07-25T12:36:27.815Z,31.13
2018-07-25T12:39:32.069Z,31.70
2018-07-25T12:42:35.351Z,31.06
2018-07-25T12:45:38.483Z,32.13
2018-07-25T12:48:42.731Z,32.29
2018-07-25T12:51:45.948Z,32.06
2018-07-25T12:54:49.073Z,31.82
2018-07-25T12:57:52.480Z,30.94
2018-07-25T13:00:55.757Z,30.37
2018-07-25T13:03:59.039Z,31.33
2018-07-25T13:07:02.348Z,31.17
2018-07-25T13:10:05.659Z,31.16
2018-07-25T13:13:08.931Z,29.69
2018-07-25T13:16:12.831Z,29.49
2018-07-25T13:19:16.358Z,29.47
2018-07-25T13:22:19.584Z,30.23
2018-07-25T13:25:22.708Z,30.44
2018-07-25T13:28:25.961Z,30.30
2018-07-25T13:31:29.258Z,30.29
2018-07-25T13:34:32.505Z,30.19
2018-07-25T13:37:35.711Z,30.66
2018-07-25T13:40:39.064Z,29.67
2018-07-25T13:43:42.549Z,28.82
2018-07-25T13:46:45.977Z,29.21
2018-07-25T13:49:49.331Z,29.49
2018-07-25T13:52:52.560Z,30.18
2018-07-25T13:55:55.869Z,29.15
2018-07-25T13:58:59.162Z,28.84
2018-07-25T14:02:02.460Z,28.70
2018-07-25T14:05:06.007Z,28.81
2018-07-25T14:08:09.220Z,28.74
2018-07-25T14:11:13.068Z,28.88
2018-07-25T14:14:16.331Z,28.12
2018-07-25T14:17:19.511Z,28.66
2018-07-25T14:20:22.981Z,28.99
2018-07-25T14:23:26.372Z,28.72
2018-07-25T14:26:29.972Z,29.57
2018-07-25T14:29:33.308Z,29.71
2018-07-25T14:32:37.489Z,29.95
2018-07-25T14:35:41.390Z,28.89
2018-07-25T14:38:44.640Z,28.82
2018-07-25T14:41:47.987Z,28.32
2018-07-25T14:44:51.281Z,28.70
2018-07-25T14:47:54.544Z,28.68
2018-07-25T14:50:57.741Z,29.15
2018-07-25T14:54:01.277Z,28.12
2018-07-25T14:57:04.572Z,27.44
2018-07-25T15:00:07.879Z,27.11
2018-07-25T15:03:11.820Z,28.20
2018-07-25T15:06:15.056Z,27.65
2018-07-25T15:09:18.334Z,27.54
2018-07-25T15:12:25.807Z,26.67
2018-07-25T15:15:29.175Z,26.38
2018-07-25T15:18:32.544Z,25.91
2018-07-25T15:21:35.772Z,25.35
2018-07-25T15:24:39.627Z,25.21
2018-07-25T15:27:42.842Z,24.67
2018-07-25T15:30:45.976Z,25.74
2018-07-25T15:33:49.323Z,25.08
2018-07-25T15:36:53.411Z,25.00
2018-07-25T15:39:56.631Z,24.47
2018-07-25T15:42:59.883Z,24.59
2018-07-25T15:46:03.075Z,24.04
2018-07-25T15:49:08.824Z,24.62
2018-07-25T15:52:13.005Z,24.37
2018-07-25T15:55:16.219Z,24.44
2018-07-25T15:58:19.499Z,25.12
2018-07-25T16:01:22.839Z,24.79
2018-07-25T16:04:26.139Z,23.15
2018-07-25T16:07:29.384Z,24.12
2018-07-25T16:10:32.668Z,24.68
2018-07-25T16:13:36.852Z,24.21
2018-07-25T16:16:40.133Z,24.12
2018-07-25T16:19:44.319Z,23.75
2018-07-25T16:22:48.688Z,23.86
2018-07-25T16:25:51.804Z,23.81
2018-07-25T16:28:57.103Z,23.29
2018-07-25T16:32:00.391Z,23.18
2018-07-25T16:35:03.589Z,23.37
2018-07-25T16:38:07.119Z,23.14
2018-07-25T16:41:10.420Z,23.40
2018-07-25T16:44:13.832Z,22.80
2018-07-25T16:47:16.984Z,23.28
2018-07-25T16:50:20.329Z,23.50
2018-07-25T16:53:23.581Z,23.53
2018-07-25T16:56:26.995Z,23.62
2018-07-25T16:59:30.322Z,24.02
2018-07-25T17:02:34.678Z,23.36
2018-07-25T17:05:38.017Z,23.61
2018-07-25T17:08:42.141Z,23.57
2018-07-25T17:11:45.564Z,23.49
2018-07-25T17:14:48.884Z,23.63
2018-07-25T17:17:52.278Z,24.02
2018-07-25T17:20:55.423Z,23.81
2018-07-25T17:23:58.684Z,24.40
2018-07-25T17:27:02.015Z,24.25
2018-07-25T17:30:06.576Z,24.30
2018-07-25T17:33:09.887Z,24.03
2018-07-25T17:36:13.952Z,24.18
2018-07-25T17:39:17.229Z,24.29
2018-07-25T17:42:20.577Z,24.95
2018-07-25T17:45:23.856Z,25.06
2018-07-25T17:48:27.135Z,24.25
2018-07-25T17:51:30.318Z,24.62
2018-07-25T17:54:33.617Z,24.43
2018-07-25T17:57:37.949Z,25.01
2018-07-25T18:00:42.260Z,25.83
2018-07-25T18:03:45.689Z,26.17
2018-07-25T18:06:49.016Z,26.27
2018-07-25T18:09:52.410Z,26.87
2018-07-25T18:13:01.048Z,27.25
2018-07-25T18:16:04.284Z,27.39
2018-07-25T18:19:07.478Z,27.92
2018-07-25T18:22:11.275Z,28.18
2018-07-25T18:25:14.549Z,28.76
2018-07-25T18:28:18.349Z,29.15
2018-07-25T18:31:21.649Z,29.75
2018-07-25T18:34:27.084Z,29.96
2018-07-25T18:37:30.467Z,30.34
2018-07-25T18:40:33.764Z,30.47
2018-07-25T18:43:37.097Z,30.58
2018-07-25T18:46:41.823Z,30.96
2018-07-25T18:49:45.303Z,31.17
2018-07-25T18:52:48.561Z,31.11
2018-07-25T18:55:51.750Z,31.45
2018-07-25T18:58:55.043Z,31.47
2018-07-25T19:01:58.349Z,31.75
2018-07-25T19:05:01.694Z,31.88
2018-07-25T19:08:04.848Z,31.84
2018-07-25T19:11:10.098Z,32.13
2018-07-25T19:14:18.663Z,32.47
2018-07-25T19:17:21.983Z,32.23
2018-07-25T19:20:25.432Z,32.42
2018-07-25T19:23:28.928Z,32.56
2018-07-25T19:26:32.188Z,32.82
2018-07-25T19:29:35.483Z,33.18
2018-07-25T19:32:38.793Z,33.61
2018-07-25T19:35:42.474Z,33.95
2018-07-25T19:38:46.094Z,34.21
2018-07-25T19:41:49.355Z,34.42
2018-07-25T19:44:52.593Z,34.61
2018-07-25T19:47:55.808Z,35.30
2018-07-25T19:50:59.118Z,35.46
2018-07-25T19:54:02.472Z,35.14
2018-07-25T19:57:05.727Z,35.29
2018-07-25T20:00:08.987Z,36.07
2018-07-25T20:03:12.189Z,36.75
2018-07-25T20:06:15.580Z,35.88
2018-07-25T20:09:18.903Z,35.57
2018-07-25T20:12:22.246Z,35.81
2018-07-25T20:15:31.043Z,37.69
2018-07-25T20:18:34.323Z,37.60
2018-07-25T20:21:37.516Z,37.31
2018-07-25T20:24:40.873Z,37.92
2018-07-25T20:27:44.649Z,39.12
2018-07-25T20:30:47.891Z,39.00
2018-07-25T20:33:51.223Z,39.91
2018-07-25T20:36:54.711Z,40.18
2018-07-25T20:39:57.851Z,40.19
2018-07-25T20:43:01.175Z,40.70
2018-07-25T20:46:04.471Z,40.27
2018-07-25T20:49:08.137Z,41.70
2018-07-25T20:52:11.640Z,41.12
2018-07-25T20:55:15.071Z,41.42
2018-07-25T20:58:18.748Z,40.70
2018-07-25T21:01:21.876Z,41.41
2018-07-25T21:04:25.237Z,41.13
2018-07-25T21:07:28.423Z,40.84
2018-07-25T21:10:32.004Z,41.00
2018-07-25T21:13:35.199Z,41.32
2018-07-25T21:16:38.420Z,41.69
2018-07-25T21:19:41.699Z,40.70
2018-07-25T21:22:45.008Z,42.19
2018-07-25T21:25:48.543Z,42.65
2018-07-25T21:28:51.783Z,42.14
2018-07-25T21:31:55.006Z,42.96
2018-07-25T21:34:58.284Z,43.75
2018-07-25T21:38:01.588Z,42.84
2018-07-25T21:41:04.772Z,42.29
2018-07-25T21:44:08.323Z,42.16
2018-07-25T21:47:11.625Z,42.14
2018-07-25T21:50:14.921Z,42.50
2018-07-25T21:53:19.315Z,43.20
2018-07-25T21:56:22.749Z,42.91
2018-07-25T21:59:26.119Z,43.69
2018-07-25T22:02:48.280Z,43.57
2018-07-25T22:05:51.430Z,43.34
2018-07-25T22:08:54.573Z,43.76
2018-07-25T22:11:57.692Z,43.98
2018-07-25T22:15:00.818Z,44.40
2018-07-25T22:18:03.971Z,44.69
2018-07-25T22:21:07.209Z,47.70
2018-07-25T22:24:10.340Z,48.38
2018-07-25T22:27:13.606Z,49.36
2018-07-25T22:30:17.355Z,48.61
2018-07-25T22:33:20.502Z,49.65
2018-07-25T22:36:23.672Z,50.09
2018-07-25T22:39:26.815Z,50.54
2018-07-25T22:42:29.951Z,50.82
2018-07-25T22:45:33.198Z,50.91
2018-07-25T22:48:36.452Z,50.87
2018-07-25T22:51:39.496Z,50.99
2018-07-25T22:54:42.759Z,51.68
2018-07-25T22:57:46.533Z,52.19
2018-07-25T23:00:49.875Z,52.80
2018-07-25T23:03:53.046Z,52.96
2018-07-25T23:06:56.180Z,52.67
2018-07-25T23:09:59.334Z,51.27
2018-07-25T23:13:02.492Z,52.57
2018-07-25T23:16:05.863Z,53.09
2018-07-25T23:19:09.035Z,52.51
2018-07-25T23:22:12.169Z,52.17
2018-07-25T23:25:15.310Z,51.74
2018-07-25T23:28:19.672Z,53.27
2018-07-25T23:31:22.823Z,53.39
2018-07-25T23:34:25.969Z,53.89
2018-07-25T23:37:29.115Z,53.73
2018-07-25T23:40:32.240Z,54.45
2018-07-25T23:43:35.380Z,54.17
2018-07-25T23:46:38.870Z,53.79
2018-07-25T23:49:41.999Z,53.35
2018-07-25T23:52:45.135Z,54.97
2018-07-25T23:55:48.717Z,55.19
2018-07-25T23:58:52.014Z,55.76
